createdAt,value
2022-12-11T00:02:33.853Z,1.60
2022-12-11T00:05:40.028Z,1.60
2022-12-11T00:08:42.425Z,1.60
2022-12-11T00:11:44.935Z,1.60
2022-12-11T00:14:46.921Z,1.60
2022-12-11T00:17:49.013Z,1.60
2022-12-11T00:20:51.053Z,1.60
2022-12-11T00:23:53.161Z,1.60
2022-12-11T00:26:55.207Z,1.70
2022-12-11T00:29:57.477Z,1.60
2022-12-11T00:32:59.466Z,1.70
2022-12-11T00:36:01.666Z,1.70
2022-12-11T00:39:04.975Z,1.70
2022-12-11T00:42:08.393Z,1.70
2022-12-11T00:45:11.159Z,1.70
2022-12-11T00:48:14.207Z,1.70
2022-12-11T00:51:17.535Z,1.70
2022-12-11T00:54:19.622Z,1.80
2022-12-11T00:57:21.687Z,1.70
2022-12-11T01:00:24.780Z,1.80
2022-12-11T01:03:26.868Z,1.80
2022-12-11T01:06:29.526Z,1.80
2022-12-11T01:09:50.625Z,1.70
2022-12-11T01:12:57.076Z,1.80
2022-12-11T01:15:59.165Z,1.80
2022-12-11T01:19:01.377Z,1.80
2022-12-11T01:22:03.405Z,1.80
2022-12-11T01:25:05.781Z,1.80
2022-12-11T01:28:07.962Z,1.80
2022-12-11T01:31:11.899Z,1.80
2022-12-11T01:34:14.035Z,1.80
2022-12-11T01:37:16.134Z,1.80
2022-12-11T01:40:20.158Z,1.80
2022-12-11T01:43:22.244Z,1.80
2022-12-11T01:46:24.876Z,1.80
2022-12-11T01:49:28.728Z,1.80
2022-12-11T01:52:30.837Z,1.80
2022-12-11T01:55:34.306Z,1.80
2022-12-11T01:58:44.173Z,1.80
2022-12-11T02:02:08.064Z,1.80
2022-12-11T02:05:10.472Z,1.80
2022-12-11T02:08:12.904Z,1.80
2022-12-11T02:11:22.684Z,1.80
2022-12-11T02:14:39.170Z,1.80
2022-12-11T02:17:47.606Z,1.90
2022-12-11T02:21:27.905Z,1.90
2022-12-11T02:25:11.492Z,1.90
2022-12-11T02:28:28.250Z,1.80
2022-12-11T02:31:34.767Z,1.90
2022-12-11T02:34:44.850Z,1.80
2022-12-11T02:37:49.879Z,1.80
2022-12-11T02:40:54.846Z,1.90
2022-12-11T02:43:58.648Z,1.90
2022-12-11T02:47:03.684Z,1.90
2022-12-11T02:50:11.758Z,1.90
2022-12-11T02:53:17.679Z,1.90
2022-12-11T02:56:26.744Z,1.90
2022-12-11T02:59:38.009Z,1.80
2022-12-11T03:02:41.266Z,1.90
2022-12-11T03:05:43.706Z,1.80
2022-12-11T03:08:45.882Z,1.90
2022-12-11T03:11:48.077Z,1.90
2022-12-11T03:14:50.590Z,1.90
2022-12-11T03:18:09.877Z,1.90
2022-12-11T03:21:22.471Z,2.00
2022-12-11T03:24:47.317Z,1.90
2022-12-11T03:28:19.438Z,1.90
2022-12-11T03:31:31.932Z,1.90
2022-12-11T03:34:48.582Z,1.90
2022-12-11T03:37:53.023Z,1.90
2022-12-11T03:40:58.295Z,1.90
2022-12-11T03:44:00.965Z,1.90
2022-12-11T03:47:07.345Z,1.90
2022-12-11T03:50:12.578Z,1.90
2022-12-11T03:53:16.213Z,1.90
2022-12-11T03:56:20.405Z,1.90
2022-12-11T03:59:31.154Z,1.90
2022-12-11T04:02:33.400Z,1.90
2022-12-11T04:05:35.735Z,1.90
2022-12-11T04:08:37.775Z,2.00
2022-12-11T04:11:39.998Z,2.00
2022-12-11T04:15:00.566Z,2.00
2022-12-11T04:18:20.994Z,2.00
2022-12-11T04:21:58.148Z,1.90
2022-12-11T04:25:06.208Z,1.90
2022-12-11T04:28:08.278Z,1.90
2022-12-11T04:31:15.305Z,2.00
2022-12-11T04:34:17.951Z,2.00
2022-12-11T04:37:19.967Z,2.00
2022-12-11T04:40:22.541Z,1.90
2022-12-11T04:43:24.587Z,1.90
2022-12-11T04:46:27.033Z,1.90
2022-12-11T04:49:29.160Z,1.90
2022-12-11T04:52:31.394Z,1.90
2022-12-11T04:55:33.505Z,1.90
2022-12-11T04:58:36.255Z,1.90
2022-12-11T05:01:38.301Z,1.90
2022-12-11T05:04:40.342Z,1.90
2022-12-11T05:07:42.412Z,1.90
2022-12-11T05:10:49.946Z,1.90
2022-12-11T05:13:52.319Z,1.80
2022-12-11T05:16:54.359Z,1.80
2022-12-11T05:19:56.473Z,1.90
2022-12-11T05:22:58.482Z,1.90
2022-12-11T05:26:03.032Z,1.90
2022-12-11T05:29:05.602Z,1.90
2022-12-11T05:32:07.821Z,1.80
2022-12-11T05:35:10.359Z,1.80
2022-12-11T05:38:12.539Z,1.80
2022-12-11T05:41:18.018Z,1.90
2022-12-11T05:44:20.081Z,1.80
2022-12-11T05:47:22.144Z,1.80
2022-12-11T05:50:24.389Z,1.90
2022-12-11T05:53:26.910Z,1.80
2022-12-11T05:56:32.023Z,1.90
2022-12-11T05:59:34.068Z,1.90
2022-12-11T06:02:36.524Z,1.90
2022-12-11T06:05:40.053Z,1.90
2022-12-11T06:08:42.607Z,1.90
2022-12-11T06:11:44.630Z,1.90
2022-12-11T06:14:46.677Z,1.90
2022-12-11T06:17:48.773Z,1.90
2022-12-11T06:20:50.922Z,1.90
2022-12-11T06:23:55.615Z,1.90
2022-12-11T06:26:57.778Z,1.90
2022-12-11T06:29:59.806Z,1.90
2022-12-11T06:33:02.129Z,1.80
2022-12-11T06:36:06.119Z,1.80
2022-12-11T06:39:08.640Z,1.90
2022-12-11T06:42:10.838Z,1.90
2022-12-11T06:45:13.072Z,2.00
2022-12-11T06:48:15.272Z,1.90
2022-12-11T06:51:22.481Z,1.90
2022-12-11T06:54:28.266Z,2.00
2022-12-11T06:57:30.314Z,2.00
2022-12-11T07:00:37.909Z,2.10
2022-12-11T07:03:40.140Z,2.00
2022-12-11T07:06:42.338Z,2.00
2022-12-11T07:09:44.393Z,2.10
2022-12-11T07:12:46.594Z,2.10
2022-12-11T07:15:48.781Z,2.10
2022-12-11T07:18:51.887Z,2.20
2022-12-11T07:21:54.237Z,2.10
2022-12-11T07:24:56.326Z,2.10
2022-12-11T07:27:58.411Z,2.10
2022-12-11T07:31:05.065Z,2.10
2022-12-11T07:34:07.298Z,2.10
2022-12-11T07:37:09.356Z,2.10
2022-12-11T07:40:11.796Z,2.20
2022-12-11T07:43:13.940Z,2.20
2022-12-11T07:46:21.980Z,2.30
2022-12-11T07:49:24.212Z,2.30
2022-12-11T07:52:26.391Z,2.30
2022-12-11T07:55:28.670Z,2.30
2022-12-11T07:58:30.891Z,2.30
2022-12-11T08:01:38.109Z,2.30
2022-12-11T08:04:40.594Z,2.40
2022-12-11T08:07:42.672Z,2.40
2022-12-11T08:10:45.313Z,2.40
2022-12-11T08:13:48.086Z,2.30
2022-12-11T08:16:50.151Z,2.30
2022-12-11T08:19:52.262Z,2.30
2022-12-11T08:22:58.872Z,2.40
2022-12-11T08:26:06.563Z,2.40
2022-12-11T08:29:08.606Z,2.40
2022-12-11T08:32:12.581Z,2.40
2022-12-11T08:35:15.532Z,2.50
2022-12-11T08:38:22.245Z,2.60
2022-12-11T08:41:28.478Z,2.60
2022-12-11T08:44:31.044Z,2.80
2022-12-11T08:47:33.177Z,3.10
2022-12-11T08:50:37.608Z,3.60
2022-12-11T08:53:40.526Z,3.70
2022-12-11T08:56:42.607Z,3.80
2022-12-11T08:59:44.658Z,3.50
2022-12-11T09:02:47.531Z,3.40
2022-12-11T09:05:49.638Z,3.20
2022-12-11T09:08:53.591Z,3.00
2022-12-11T09:11:56.595Z,2.90
2022-12-11T09:14:58.711Z,2.90
2022-12-11T09:18:00.742Z,2.90
2022-12-11T09:21:08.084Z,3.00
2022-12-11T09:24:11.846Z,3.00
2022-12-11T09:27:13.887Z,3.00
2022-12-11T09:30:16.320Z,3.00
2022-12-11T09:33:18.878Z,3.10
2022-12-11T09:36:20.944Z,3.10
2022-12-11T09:39:22.963Z,3.10
2022-12-11T09:42:30.767Z,3.20
2022-12-11T09:45:34.002Z,3.20
2022-12-11T09:48:38.224Z,3.30
2022-12-11T09:51:44.310Z,3.20
2022-12-11T09:55:10.086Z,3.30
2022-12-11T09:58:30.777Z,3.30
2022-12-11T10:01:48.809Z,3.30
2022-12-11T10:05:15.325Z,3.40
2022-12-11T10:08:44.955Z,3.40
2022-12-11T10:11:58.500Z,3.40
2022-12-11T10:15:15.258Z,3.40
2022-12-11T10:18:23.065Z,3.50
2022-12-11T10:21:26.710Z,3.50
2022-12-11T10:25:10.201Z,3.50
2022-12-11T10:28:17.124Z,3.50
2022-12-11T10:31:32.042Z,3.50
2022-12-11T10:34:40.074Z,3.50
2022-12-11T10:37:42.170Z,3.60
2022-12-11T10:40:52.612Z,3.60
2022-12-11T10:43:54.725Z,3.70
2022-12-11T10:47:14.487Z,3.70
2022-12-11T10:50:25.419Z,3.80
2022-12-11T10:53:29.244Z,3.70
2022-12-11T10:56:33.851Z,3.70
2022-12-11T10:59:50.310Z,3.70
2022-12-11T11:02:52.461Z,3.80
2022-12-11T11:06:13.709Z,3.80
2022-12-11T11:09:31.572Z,3.80
2022-12-11T11:12:39.420Z,3.80
2022-12-11T11:15:41.544Z,3.90
2022-12-11T11:18:54.205Z,4.00
2022-12-11T11:22:07.941Z,4.10
2022-12-11T11:25:19.661Z,4.20
2022-12-11T11:28:26.948Z,4.20
2022-12-11T11:31:34.392Z,4.30
2022-12-11T11:34:36.506Z,4.30
2022-12-11T11:37:40.766Z,4.20
2022-12-11T11:40:59.453Z,4.20
2022-12-11T11:44:10.514Z,4.20
2022-12-11T11:47:22.072Z,4.20
2022-12-11T11:50:33.020Z,4.20
2022-12-11T11:53:40.618Z,4.20
2022-12-11T11:56:53.369Z,4.10
2022-12-11T11:59:59.703Z,4.10
2022-12-11T12:03:10.303Z,4.10
2022-12-11T12:06:39.406Z,4.00
2022-12-11T12:10:12.523Z,4.00
2022-12-11T12:13:48.547Z,4.00
2022-12-11T12:17:20.002Z,4.00
2022-12-11T12:20:49.263Z,4.00
2022-12-11T12:24:19.807Z,4.10
2022-12-11T12:31:20.800Z,5.40
2022-12-11T12:34:43.187Z,6.70
2022-12-11T12:38:06.590Z,7.40
2022-12-11T12:41:46.328Z,7.90
2022-12-11T12:44:59.664Z,8.00
2022-12-11T12:48:02.289Z,8.00
2022-12-11T12:51:05.383Z,8.00
2022-12-11T12:54:12.613Z,8.30
2022-12-11T12:57:14.847Z,8.00
2022-12-11T13:00:27.506Z,8.10
2022-12-11T13:03:33.086Z,7.00
2022-12-11T13:06:44.379Z,6.10
2022-12-11T13:10:32.297Z,5.40
2022-12-11T13:13:40.729Z,5.00
2022-12-11T13:16:48.013Z,4.70
2022-12-11T13:19:57.574Z,4.70
2022-12-11T13:23:26.765Z,4.90
2022-12-11T13:26:31.320Z,5.40
2022-12-11T13:29:39.758Z,5.70
2022-12-11T13:32:49.768Z,5.60
2022-12-11T13:36:17.759Z,5.10
2022-12-11T13:39:31.194Z,4.60
2022-12-11T13:42:56.372Z,4.20
2022-12-11T13:46:01.748Z,4.00
2022-12-11T13:49:18.733Z,3.90
2022-12-11T13:52:25.951Z,3.80
2022-12-11T13:55:31.026Z,3.60
2022-12-11T13:58:39.106Z,3.50
2022-12-11T14:01:41.396Z,3.40
2022-12-11T14:04:44.273Z,3.40
2022-12-11T14:07:53.053Z,3.30
2022-12-11T14:10:55.730Z,3.30
2022-12-11T14:14:01.072Z,3.20
2022-12-11T14:17:03.532Z,3.20
2022-12-11T14:20:10.675Z,3.20
2022-12-11T14:23:20.245Z,3.10
2022-12-11T14:26:23.965Z,3.00
2022-12-11T14:29:32.624Z,2.90
2022-12-11T14:32:38.492Z,2.80
2022-12-11T14:35:43.385Z,2.80
2022-12-11T14:39:02.439Z,2.70
2022-12-11T14:42:13.373Z,2.60
2022-12-11T14:45:18.650Z,2.50
2022-12-11T14:48:27.234Z,2.50
2022-12-11T14:51:35.005Z,2.50
2022-12-11T14:54:41.174Z,2.40
2022-12-11T14:57:46.567Z,2.40
2022-12-11T15:01:06.261Z,2.40
2022-12-11T15:04:14.776Z,2.30
2022-12-11T15:07:21.479Z,2.30
2022-12-11T15:10:35.740Z,2.20
2022-12-11T15:13:53.502Z,2.20
2022-12-11T15:16:57.683Z,2.10
2022-12-11T15:20:07.919Z,2.00
2022-12-11T15:23:14.064Z,2.00
2022-12-11T15:26:21.496Z,2.00
2022-12-11T15:29:31.110Z,1.90
2022-12-11T15:32:33.462Z,1.90
2022-12-11T15:35:36.098Z,2.00
2022-12-11T15:38:42.372Z,1.90
2022-12-11T15:41:44.456Z,1.80
2022-12-11T15:44:47.238Z,1.70
2022-12-11T15:47:50.510Z,1.70
2022-12-11T15:50:52.947Z,1.70
2022-12-11T15:53:55.403Z,1.70
2022-12-11T15:57:05.996Z,1.80
2022-12-11T16:00:14.241Z,1.80
2022-12-11T16:03:18.914Z,1.80
2022-12-11T16:06:21.541Z,1.80
2022-12-11T16:09:23.664Z,1.80
2022-12-11T16:12:26.128Z,1.70
2022-12-11T16:15:29.347Z,1.80
2022-12-11T16:18:31.815Z,1.70
2022-12-11T16:21:34.705Z,1.70
2022-12-11T16:24:37.661Z,1.70
2022-12-11T16:27:40.367Z,1.70
2022-12-11T16:30:44.218Z,1.70
2022-12-11T16:33:46.496Z,1.70
2022-12-11T16:36:48.695Z,1.60
2022-12-11T16:39:50.790Z,1.60
2022-12-11T16:42:53.511Z,1.60
2022-12-11T16:45:56.168Z,1.60
2022-12-11T16:48:58.669Z,1.50
2022-12-11T16:52:02.742Z,1.60
2022-12-11T16:55:05.927Z,1.50
2022-12-11T16:58:08.610Z,1.60
2022-12-11T17:01:14.977Z,1.60
2022-12-11T17:04:18.997Z,1.60
2022-12-11T17:07:21.289Z,1.50
2022-12-11T17:10:23.666Z,1.50
2022-12-11T17:13:26.032Z,1.50
2022-12-11T17:16:30.880Z,1.40
2022-12-11T17:19:33.662Z,1.40
2022-12-11T17:22:36.364Z,1.40
2022-12-11T17:25:43.276Z,1.40
2022-12-11T17:28:46.516Z,1.40
2022-12-11T17:31:50.564Z,1.30
2022-12-11T17:34:53.637Z,1.30
2022-12-11T17:37:56.341Z,1.30
2022-12-11T17:41:00.698Z,1.30
2022-12-11T17:44:03.574Z,1.30
2022-12-11T17:47:11.046Z,1.30
2022-12-11T17:50:14.209Z,1.20
2022-12-11T17:53:18.786Z,1.20
2022-12-11T17:56:21.284Z,1.20
2022-12-11T17:59:23.928Z,1.20
2022-12-11T18:02:27.276Z,1.20
2022-12-11T18:05:30.342Z,1.20
2022-12-11T18:08:33.193Z,1.20
2022-12-11T18:11:36.157Z,1.20
2022-12-11T18:14:39.800Z,1.10
2022-12-11T18:17:43.800Z,1.10
2022-12-11T18:20:51.188Z,1.10
2022-12-11T18:23:54.405Z,1.10
2022-12-11T18:26:57.271Z,1.10
2022-12-11T18:30:00.071Z,1.00
2022-12-11T18:33:02.619Z,1.00
2022-12-11T18:36:05.972Z,1.00
2022-12-11T18:39:14.661Z,1.00
2022-12-11T18:42:34.071Z,1.00
2022-12-11T18:45:41.427Z,1.00
2022-12-11T18:48:46.871Z,0.90
2022-12-11T18:51:50.419Z,0.90
2022-12-11T18:54:55.570Z,0.90
2022-12-11T18:57:58.776Z,0.90
2022-12-11T19:01:10.637Z,0.90
2022-12-11T19:04:13.963Z,0.80
2022-12-11T19:07:16.604Z,0.80
2022-12-11T19:10:26.708Z,0.80
2022-12-11T19:13:29.406Z,0.80
2022-12-11T19:16:40.744Z,0.70
2022-12-11T19:19:46.625Z,0.70
2022-12-11T19:22:51.485Z,0.70
2022-12-11T19:25:55.069Z,0.60
2022-12-11T19:29:00.619Z,0.60
2022-12-11T19:32:03.380Z,0.60
2022-12-11T19:35:06.629Z,0.60
2022-12-11T19:38:10.315Z,0.60
2022-12-11T19:41:24.053Z,0.60
2022-12-11T19:44:27.120Z,0.50
2022-12-11T19:47:30.399Z,0.50
2022-12-11T19:50:38.728Z,0.50
2022-12-11T19:53:43.124Z,0.50
2022-12-11T19:56:48.531Z,0.40
2022-12-11T19:59:56.800Z,0.40
2022-12-11T20:03:00.471Z,0.40
2022-12-11T20:06:07.038Z,0.40
2022-12-11T20:09:11.903Z,0.30
2022-12-11T20:12:15.118Z,0.20
2022-12-11T20:15:20.185Z,0.20
2022-12-11T20:21:39.728Z,0.20
2022-12-11T20:24:42.196Z,0.20
2022-12-11T20:27:45.809Z,0.20
2022-12-11T20:30:51.499Z,0.10
2022-12-11T20:33:57.032Z,0.20
2022-12-11T20:37:00.839Z,0.20
2022-12-11T20:40:04.096Z,0.20
2022-12-11T20:43:06.891Z,0.10
2022-12-11T20:46:11.463Z,0.10
2022-12-11T20:49:14.288Z,0.10
2022-12-11T20:52:18.408Z,0.10
2022-12-11T20:55:21.085Z,0.10
2022-12-11T20:58:24.410Z,0.10
2022-12-11T21:01:31.189Z,0.00
2022-12-11T21:04:33.919Z,0.10
2022-12-11T21:07:36.567Z,0.00
2022-12-11T21:10:45.130Z,0.00
2022-12-11T21:13:47.773Z,0.00
2022-12-11T21:16:50.286Z,0.00
2022-12-11T21:19:52.960Z,0.10
2022-12-11T21:22:57.527Z,0.10
2022-12-11T21:26:00.429Z,0.10
2022-12-11T21:29:02.667Z,0.00
2022-12-11T21:32:05.691Z,0.00
2022-12-11T21:35:08.648Z,0.00
2022-12-11T21:38:11.777Z,0.00
2022-12-11T21:41:17.411Z,0.00
2022-12-11T21:47:41.658Z,0.10
2022-12-11T21:50:44.304Z,0.00
2022-12-11T21:53:47.097Z,0.00
2022-12-11T21:56:49.217Z,0.00
2022-12-11T21:59:51.692Z,0.00
2022-12-11T22:02:54.002Z,0.00
2022-12-11T22:05:56.160Z,0.00
2022-12-11T22:08:58.316Z,0.00
2022-12-11T22:12:00.340Z,0.00
2022-12-11T22:15:02.493Z,0.00
2022-12-11T22:18:04.858Z,0.00
2022-12-11T22:21:07.168Z,0.00
2022-12-11T22:24:09.223Z,0.00
2022-12-11T22:27:11.872Z,0.00
2022-12-11T22:30:14.311Z,0.00
2022-12-11T22:33:16.741Z,0.00
2022-12-11T22:36:19.041Z,0.00
2022-12-11T22:39:21.202Z,0.00
2022-12-11T22:42:23.443Z,0.00
2022-12-11T22:45:25.675Z,0.00
2022-12-11T22:48:27.855Z,0.00
2022-12-11T22:51:30.011Z,0.00
2022-12-11T22:54:32.074Z,0.00
2022-12-11T22:57:37.930Z,0.00
2022-12-11T23:00:41.860Z,0.00
2022-12-11T23:03:44.228Z,0.00
2022-12-11T23:06:46.275Z,0.00
2022-12-11T23:09:48.340Z,0.00
2022-12-11T23:12:50.577Z,0.00
2022-12-11T23:15:53.052Z,0.00
2022-12-11T23:18:56.222Z,0.00
2022-12-11T23:21:58.366Z,0.00
2022-12-11T23:25:00.453Z,0.00
2022-12-11T23:28:02.587Z,-0.10
2022-12-11T23:31:04.891Z,-0.10
2022-12-11T23:34:07.283Z,0.00
2022-12-11T23:37:09.355Z,-0.10
2022-12-11T23:40:13.974Z,-0.10
2022-12-11T23:43:16.040Z,-0.10
2022-12-11T23:46:22.182Z,-0.10
2022-12-11T23:49:24.661Z,-0.10
2022-12-11T23:52:26.803Z,-0.20
2022-12-11T23:55:29.037Z,-0.20
2022-12-11T23:58:31.175Z,-0.20
